Time;durP1;ratioP1;P1;durP2;ratioP2;P2;SDS_P1;SDS_P2;PMS_P1;PMS_P2;Temp;Humidity;BMP_temperature;BMP_pressure;BME280_temperature;BME280_humidity;BME280_pressure;Samples;Min_cycle;Max_cycle;Signal;HPM_P1;HPM_P2
2022/05/26 00:01:39;;;;;;;3.63;3.33;;;15.90;77.00;;;;;;5115734;28;20463;-35
2022/05/26 00:04:05;;;;;;;4.50;3.67;;;15.90;77.10;;;;;;5115838;28;20031;-31
2022/05/26 00:06:31;;;;;;;6.05;3.78;;;15.90;77.10;;;;;;5116007;28;20012;-32
2022/05/26 00:08:58;;;;;;;5.68;4.20;;;15.90;77.30;;;;;;5116120;28;20111;-45
2022/05/26 00:11:28;;;;;;;9.50;4.10;;;15.90;77.80;;;;;;5115123;28;20051;-45
2022/05/26 00:13:54;;;;;;;7.68;4.43;;;15.90;77.90;;;;;;5115317;28;20023;-45
2022/05/26 00:16:20;;;;;;;4.72;4.32;;;15.80;77.90;;;;;;5115741;27;20028;-40
2022/05/26 00:18:47;;;;;;;7.00;5.28;;;15.80;78.20;;;;;;5115357;28;20102;-40
2022/05/26 00:21:13;;;;;;;8.38;5.78;;;15.80;78.40;;;;;;5115989;27;20419;-47
2022/05/26 00:23:39;;;;;;;11.15;5.95;;;15.80;78.50;;;;;;5115320;28;20058;-46
2022/05/26 00:26:05;;;;;;;9.52;6.45;;;15.80;78.70;;;;;;5115200;28;20049;-41
2022/05/26 00:28:31;;;;;;;6.85;6.15;;;15.80;79.10;;;;;;5115407;28;20069;-40
2022/05/26 00:30:57;;;;;;;8.55;6.05;;;15.80;79.20;;;;;;5115383;28;20024;-40
2022/05/26 00:33:23;;;;;;;9.90;6.45;;;15.80;79.20;;;;;;5115323;28;20027;-41
2022/05/26 00:35:49;;;;;;;8.43;6.82;;;15.80;79.30;;;;;;5115675;28;20027;-42
2022/05/26 00:38:16;;;;;;;8.75;7.10;;;15.70;79.20;;;;;;5113904;28;20428;-45
2022/05/26 00:40:44;;;;;;;8.23;7.00;;;15.70;79.40;;;;;;5115149;28;20383;-44
2022/05/26 00:43:10;;;;;;;9.40;6.47;;;15.70;79.50;;;;;;5115070;28;20015;-45
2022/05/26 00:45:49;;;;;;;7.35;6.10;;;15.70;79.50;;;;;;5115062;28;20378;-45
2022/05/26 00:48:19;;;;;;;10.55;6.30;;;15.70;79.50;;;;;;5115053;28;20015;-45
2022/05/26 00:50:51;;;;;;;9.07;7.07;;;15.70;79.50;;;;;;5114625;27;20031;-44
2022/05/26 00:53:23;;;;;;;9.05;7.30;;;15.70;79.60;;;;;;5114733;28;20023;-45
2022/05/26 00:55:55;;;;;;;10.40;6.63;;;15.70;79.70;;;;;;5114833;28;20039;-44
2022/05/26 00:58:30;;;;;;;8.68;7.03;;;15.70;79.80;;;;;;5114922;28;20047;-46
2022/05/26 01:00:58;;;;;;;7.30;6.53;;;15.70;80.00;;;;;;5114679;28;20115;-45
2022/05/26 01:03:32;;;;;;;8.10;6.38;;;15.60;80.00;;;;;;5114578;27;20020;-45
2022/05/26 01:06:22;;;;;;;10.70;7.72;;;15.70;80.30;;;;;;5114365;27;20080;-45
2022/05/26 01:08:58;;;;;;;7.35;6.43;;;15.60;80.60;;;;;;5114427;28;20031;-45
2022/05/26 01:11:27;;;;;;;9.32;6.80;;;15.60;80.60;;;;;;5114632;28;20050;-45
2022/05/26 01:13:58;;;;;;;9.27;5.97;;;15.60;80.60;;;;;;5114410;28;20057;-45
2022/05/26 01:16:50;;;;;;;9.77;6.18;;;15.60;80.50;;;;;;5114863;28;20028;-45
2022/05/26 01:19:49;;;;;;;7.60;6.38;;;15.60;80.50;;;;;;5114050;28;20482;-45
2022/05/26 01:22:21;;;;;;;7.45;6.35;;;15.60;80.50;;;;;;5114423;28;20172;-45
2022/05/26 01:25:08;;;;;;;7.22;6.30;;;15.60;80.50;;;;;;5113979;28;20055;-46
2022/05/26 01:27:37;;;;;;;8.68;6.57;;;15.70;80.70;;;;;;5114268;28;20362;-45
2022/05/26 01:30:23;;;;;;;9.38;6.70;;;15.60;80.90;;;;;;5114028;28;20023;-46
2022/05/26 01:32:55;;;;;;;9.23;7.10;;;15.60;81.00;;;;;;5113919;28;20043;-45
2022/05/26 01:35:52;;;;;;;10.25;7.35;;;15.60;81.30;;;;;;5114367;28;20448;-47
2022/05/26 01:38:53;;;;;;;10.95;6.63;;;15.60;81.30;;;;;;5113722;28;20071;-45
2022/05/26 01:41:28;;;;;;;9.10;6.78;;;15.60;81.30;;;;;;5111616;28;20170;-47
2022/05/26 01:44:14;;;;;;;9.25;7.20;;;15.60;81.20;;;;;;5113695;28;20028;-45
2022/05/26 01:46:42;;;;;;;13.43;7.88;;;15.60;81.40;;;;;;5113892;28;20055;-45
2022/05/26 01:49:30;;;;;;;10.90;8.35;;;15.60;81.40;;;;;;5113912;28;20059;-45
2022/05/26 01:52:16;;;;;;;11.13;7.13;;;15.60;81.60;;;;;;5114022;28;20076;-45
2022/05/26 01:54:57;;;;;;;9.63;6.93;;;15.50;82.00;;;;;;5113871;28;20350;-45
2022/05/26 01:57:30;;;;;;;10.93;6.45;;;15.50;81.40;;;;;;5113296;28;20096;-47
2022/05/26 02:00:03;;;;;;;10.95;6.85;;;15.60;81.40;;;;;;5113648;28;20032;-45
2022/05/26 02:02:33;;;;;;;12.48;7.38;;;15.60;81.40;;;;;;5113476;28;20018;-45
2022/05/26 02:05:09;;;;;;;14.15;7.70;;;15.60;81.40;;;;;;5112236;28;20120;-48
2022/05/26 02:07:48;;;;;;;10.15;6.88;;;15.60;81.50;;;;;;5113603;27;20106;-45
2022/05/26 02:10:38;;;;;;;12.70;7.43;;;15.70;81.50;;;;;;5113501;28;20042;-33
2022/05/26 02:13:19;;;;;;;12.27;6.70;;;15.60;81.30;;;;;;5113856;28;20065;-33
2022/05/26 02:15:52;;;;;;;10.32;7.25;;;15.60;81.30;;;;;;5113367;28;20059;-33
2022/05/26 02:18:27;;;;;;;9.25;6.82;;;15.70;81.30;;;;;;5113089;28;20020;-36
2022/05/26 02:21:05;;;;;;;11.90;6.80;;;15.70;81.40;;;;;;5112987;28;20039;-30
2022/05/26 02:24:13;;;;;;;9.43;6.68;;;15.70;81.30;;;;;;5113176;28;20084;-33
2022/05/26 02:26:38;;;;;;;12.02;7.30;;;15.70;81.30;;;;;;5113206;28;20098;-31
2022/05/26 02:31:50;;;;;;;10.98;6.32;;;15.70;81.60;;;;;;5113261;28;20084;-30
2022/05/26 02:34:19;;;;;;;12.27;7.47;;;15.60;81.50;;;;;;5112773;27;20081;-33
2022/05/26 02:36:46;;;;;;;11.35;6.70;;;15.70;81.50;;;;;;5112723;28;20091;-29
2022/05/26 02:39:12;;;;;;;14.77;8.07;;;15.60;81.50;;;;;;5113115;28;20020;-29
2022/05/26 02:41:39;;;;;;;12.23;6.57;;;15.70;81.60;;;;;;5113115;28;20030;-29
2022/05/26 02:44:06;;;;;;;12.75;7.38;;;15.70;81.60;;;;;;5113757;28;20031;-29
2022/05/26 02:47:04;;;;;;;12.18;6.90;;;15.60;81.70;;;;;;5113068;28;20448;-29
2022/05/26 02:49:44;;;;;;;13.60;7.13;;;15.60;81.70;;;;;;5112999;28;20019;-29
2022/05/26 02:52:43;;;;;;;14.43;7.07;;;15.60;81.70;;;;;;5113405;28;20027;-29
2022/05/26 02:55:46;;;;;;;13.70;6.55;;;15.60;81.80;;;;;;5113183;28;20031;-30
2022/05/26 02:58:35;;;;;;;13.52;7.57;;;15.60;81.70;;;;;;5112783;28;20519;-29
2022/05/26 03:01:26;;;;;;;14.35;7.15;;;15.60;81.80;;;;;;5107220;28;20040;-29
2022/05/26 03:04:01;;;;;;;12.70;6.95;;;15.60;81.90;;;;;;5112863;28;20027;-30
2022/05/26 03:06:40;;;;;;;12.55;6.95;;;15.60;81.90;;;;;;5112914;28;20032;-29
2022/05/26 03:09:07;;;;;;;13.18;6.82;;;15.60;81.80;;;;;;5112867;28;20119;-29
2022/05/26 03:11:55;;;;;;;12.73;6.88;;;15.60;81.70;;;;;;5113165;28;20032;-30
2022/05/26 03:14:21;;;;;;;13.10;6.80;;;15.70;81.80;;;;;;5112768;28;20027;-30
2022/05/26 03:16:47;;;;;;;17.52;7.10;;;15.70;81.80;;;;;;5112755;28;20034;-28
2022/05/26 03:19:14;;;;;;;12.82;7.25;;;15.70;81.80;;;;;;5112545;28;20114;-29
2022/05/26 03:21:40;;;;;;;14.13;7.30;;;15.60;81.90;;;;;;5112748;28;20027;-30
2022/05/26 03:24:06;;;;;;;16.50;7.43;;;15.60;81.90;;;;;;5112761;28;20035;-29
2022/05/26 03:26:33;;;;;;;15.57;7.07;;;15.60;81.90;;;;;;5112737;28;20023;-32
2022/05/26 03:28:58;;;;;;;20.50;8.52;;;15.60;82.00;;;;;;5112676;28;20034;-31
2022/05/26 03:31:24;;;;;;;16.70;7.03;;;15.60;82.10;;;;;;5113310;28;20477;-34
2022/05/26 03:42:08;;;;;;;17.15;6.55;;;15.50;82.40;;;;;;5113296;28;20108;-28
2022/05/26 03:44:34;;;;;;;13.68;6.03;;;15.50;82.40;;;;;;5112616;28;20036;-32
2022/05/26 03:47:00;;;;;;;15.05;6.32;;;15.50;82.40;;;;;;5114715;28;20028;-30
2022/05/26 03:49:26;;;;;;;15.52;6.25;;;15.50;83.00;;;;;;5116220;28;20038;-30
2022/05/26 03:51:52;;;;;;;12.57;5.97;;;15.50;82.60;;;;;;5116688;27;20106;-29
2022/05/26 03:54:18;;;;;;;11.82;6.07;;;15.60;82.60;;;;;;5116626;28;20027;-31
2022/05/26 03:56:43;;;;;;;14.43;5.57;;;15.50;82.60;;;;;;5115012;28;20489;-36
2022/05/26 03:59:09;;;;;;;12.20;5.47;;;15.50;82.60;;;;;;5116418;28;20371;-32
2022/05/26 04:01:34;;;;;;;16.27;6.60;;;15.60;82.60;;;;;;5116005;28;20031;-29
2022/05/26 04:04:00;;;;;;;16.08;6.35;;;15.50;82.70;;;;;;5115796;28;20020;-30
2022/05/26 04:06:27;;;;;;;13.85;6.00;;;15.50;82.80;;;;;;5115893;28;20497;-31
2022/05/26 04:08:54;;;;;;;15.88;5.50;;;15.50;82.80;;;;;;5114597;28;20048;-32
2022/05/26 04:11:21;;;;;;;11.95;5.30;;;15.50;82.80;;;;;;5116138;28;20031;-30
2022/05/26 04:13:47;;;;;;;14.25;5.13;;;15.50;82.80;;;;;;5116025;28;20044;-34
2022/05/26 04:16:12;;;;;;;14.45;5.90;;;15.50;82.80;;;;;;5115843;28;20104;-30
2022/05/26 04:18:38;;;;;;;16.20;5.43;;;15.50;82.80;;;;;;5115538;28;20024;-30
2022/05/26 04:21:06;;;;;;;13.15;5.35;;;15.50;83.30;;;;;;5115646;28;20023;-31
2022/05/26 04:23:32;;;;;;;14.13;5.15;;;15.60;82.80;;;;;;5115563;28;20015;-33
2022/05/26 04:25:57;;;;;;;15.40;5.82;;;15.60;82.70;;;;;;5115699;28;20027;-39
2022/05/26 04:28:23;;;;;;;15.23;5.88;;;15.60;82.70;;;;;;5115704;28;20375;-32
2022/05/26 04:30:48;;;;;;;11.82;5.05;;;15.60;82.70;;;;;;5114285;28;20024;-30
2022/05/26 04:33:14;;;;;;;13.50;5.28;;;15.60;82.60;;;;;;5115468;28;20023;-30
2022/05/26 04:35:40;;;;;;;12.82;5.28;;;15.70;82.60;;;;;;5115672;28;20379;-31
2022/05/26 04:38:05;;;;;;;17.95;5.68;;;15.70;82.50;;;;;;5115143;28;20110;-30
2022/05/26 04:40:31;;;;;;;16.73;5.70;;;15.70;82.40;;;;;;5115328;28;20036;-31
2022/05/26 04:42:56;;;;;;;18.70;6.40;;;15.70;82.50;;;;;;5115166;28;20102;-33
2022/05/26 04:45:22;;;;;;;18.25;5.50;;;15.70;82.60;;;;;;5115641;27;20379;-30
2022/05/26 04:47:47;;;;;;;14.80;5.45;;;15.70;82.60;;;;;;5115321;28;20050;-32
2022/05/26 04:50:14;;;;;;;12.48;5.18;;;15.70;82.50;;;;;;5115041;28;20027;-32
2022/05/26 04:52:40;;;;;;;14.30;5.25;;;15.80;82.40;;;;;;5113757;28;20081;-31
2022/05/26 04:55:06;;;;;;;17.02;5.10;;;15.80;82.40;;;;;;5114904;28;20039;-30
2022/05/26 04:57:32;;;;;;;14.02;5.07;;;15.80;82.40;;;;;;5114321;28;20043;-29
2022/05/26 04:59:58;;;;;;;20.40;5.72;;;15.80;82.40;;;;;;5114584;28;20438;-30
2022/05/26 05:02:24;;;;;;;15.00;5.28;;;15.90;82.40;;;;;;5114854;28;20027;-30
2022/05/26 05:04:50;;;;;;;14.50;5.13;;;15.90;82.40;;;;;;5114844;28;20023;-31
2022/05/26 05:07:17;;;;;;;17.33;5.43;;;15.90;82.30;;;;;;5114584;27;20102;-31
2022/05/26 05:09:44;;;;;;;15.52;5.30;;;15.90;82.40;;;;;;5114408;28;20023;-30
2022/05/26 05:12:16;;;;;;;16.40;6.13;;;15.90;82.40;;;;;;5114496;28;20153;-29
2022/05/26 05:14:45;;;;;;;15.00;5.40;;;15.90;82.30;;;;;;5114367;28;20069;-34
2022/05/26 05:17:12;;;;;;;14.35;5.72;;;16.00;82.30;;;;;;5115029;28;20015;-33
2022/05/26 05:19:38;;;;;;;15.82;5.28;;;16.00;82.20;;;;;;5114122;28;20023;-29
2022/05/26 05:22:10;;;;;;;13.00;5.32;;;16.00;82.10;;;;;;5114191;28;20343;-31
2022/05/26 05:24:51;;;;;;;19.27;5.05;;;16.00;82.10;;;;;;5114162;28;20024;-31
2022/05/26 05:27:24;;;;;;;16.30;4.95;;;16.10;82.00;;;;;;5114401;28;20019;-29
2022/05/26 05:29:52;;;;;;;15.80;5.40;;;16.10;81.90;;;;;;5114059;28;20022;-38
2022/05/26 05:32:23;;;;;;;20.00;5.40;;;16.10;81.90;;;;;;5114043;28;20012;-31
2022/05/26 05:34:54;;;;;;;15.93;5.30;;;16.10;81.90;;;;;;5114412;28;20023;-30
2022/05/26 05:37:20;;;;;;;19.75;5.60;;;16.20;81.90;;;;;;5114304;28;20016;-31
2022/05/26 05:39:46;;;;;;;16.83;5.75;;;16.20;81.90;;;;;;5114076;28;20031;-30
2022/05/26 05:42:12;;;;;;;18.50;5.22;;;16.20;81.90;;;;;;5113895;28;20103;-31
2022/05/26 05:44:38;;;;;;;12.43;4.68;;;16.20;81.80;;;;;;5113822;28;20101;-34
2022/05/26 05:47:04;;;;;;;16.98;5.40;;;16.20;81.70;;;;;;5113817;28;20023;-31
2022/05/26 05:49:32;;;;;;;14.73;4.82;;;16.20;81.70;;;;;;5114046;28;20026;-30
2022/05/26 05:52:05;;;;;;;14.43;4.82;;;16.30;81.70;;;;;;5113628;28;20023;-30
2022/05/26 05:54:31;;;;;;;13.15;5.05;;;16.30;81.60;;;;;;5113797;28;20020;-30
2022/05/26 05:56:57;;;;;;;16.48;5.20;;;16.30;81.50;;;;;;5114006;28;20079;-29
2022/05/26 05:59:23;;;;;;;16.85;4.28;;;16.30;81.50;;;;;;5112827;28;20027;-30
2022/05/26 06:01:48;;;;;;;15.27;4.43;;;16.30;81.50;;;;;;5113768;28;20020;-31
2022/05/26 06:04:14;;;;;;;18.65;4.85;;;16.30;81.50;;;;;;5113645;28;20051;-31
2022/05/26 06:06:42;;;;;;;13.38;4.25;;;16.40;81.40;;;;;;5113356;28;20423;-36
2022/05/26 06:09:13;;;;;;;17.33;5.15;;;16.40;81.20;;;;;;5113300;27;20028;-30
2022/05/26 06:11:42;;;;;;;12.88;3.88;;;16.50;81.10;;;;;;5113567;28;20054;-30
2022/05/26 06:14:08;;;;;;;14.63;3.95;;;16.60;81.00;;;;;;5113395;28;20020;-32
2022/05/26 06:16:34;;;;;;;12.55;3.95;;;16.60;80.70;;;;;;5113218;28;20367;-34
2022/05/26 06:19:00;;;;;;;15.52;4.28;;;16.70;80.60;;;;;;5112857;28;20106;-33
2022/05/26 06:21:26;;;;;;;15.40;4.70;;;16.70;80.40;;;;;;5113286;28;20429;-31
2022/05/26 06:23:56;;;;;;;18.40;4.95;;;16.70;80.20;;;;;;5113132;28;20375;-30
2022/05/26 06:26:23;;;;;;;13.15;3.88;;;16.80;80.80;;;;;;5113561;28;20019;-29
2022/05/26 06:31:33;;;;;;;11.18;4.40;;;16.90;79.90;;;;;;5113675;28;20035;-31
2022/05/26 06:39:27;;;;;;;15.15;4.55;;;17.00;79.40;;;;;;5112761;28;20038;-30
2022/05/26 06:42:07;;;;;;;12.20;4.32;;;17.00;79.10;;;;;;5113118;28;20407;-30
2022/05/26 06:44:44;;;;;;;14.07;3.60;;;17.10;79.20;;;;;;5113195;28;20027;-31
2022/05/26 06:47:17;;;;;;;12.00;3.90;;;17.10;78.90;;;;;;5113261;28;20031;-31
2022/05/26 06:49:43;;;;;;;11.73;3.88;;;17.10;78.70;;;;;;5112939;28;20012;-33
2022/05/26 06:52:10;;;;;;;14.52;4.15;;;17.10;78.50;;;;;;5112904;28;20463;-31
2022/05/26 06:54:39;;;;;;;10.23;3.10;;;17.10;78.90;;;;;;5112894;28;20020;-30
2022/05/26 06:57:06;;;;;;;10.18;3.33;;;17.10;78.60;;;;;;5112596;28;20088;-30
2022/05/26 06:59:32;;;;;;;10.10;3.70;;;17.10;78.50;;;;;;5112839;28;20043;-31
2022/05/26 07:01:58;;;;;;;10.98;3.65;;;17.10;78.20;;;;;;5112810;28;20467;-33
2022/05/26 07:04:23;;;;;;;10.23;2.80;;;17.20;78.10;;;;;;5112883;28;20160;-32
2022/05/26 07:06:51;;;;;;;9.02;2.83;;;17.20;77.90;;;;;;5112828;28;20020;-31
2022/05/26 07:09:18;;;;;;;12.93;3.15;;;17.20;77.50;;;;;;5113105;28;20080;-30
2022/05/26 07:11:44;;;;;;;9.18;3.00;;;17.20;77.30;;;;;;5113064;28;20031;-35
2022/05/26 07:14:10;;;;;;;8.93;2.67;;;17.20;76.80;;;;;;5112919;28;20123;-36
2022/05/26 07:16:36;;;;;;;7.55;2.60;;;17.20;76.80;;;;;;5112965;28;20020;-30
2022/05/26 07:19:02;;;;;;;7.35;2.25;;;17.30;76.60;;;;;;5112493;28;20026;-33
2022/05/26 07:21:27;;;;;;;8.60;2.42;;;17.40;76.20;;;;;;5114071;28;20048;-30
2022/05/26 07:23:53;;;;;;;8.23;2.40;;;17.30;76.00;;;;;;5116639;28;20028;-32
2022/05/26 07:26:18;;;;;;;7.70;2.50;;;17.40;75.60;;;;;;5115309;28;20055;-32
2022/05/26 07:28:44;;;;;;;7.75;2.25;;;17.40;75.00;;;;;;5116497;28;20028;-33
2022/05/26 07:31:12;;;;;;;7.60;2.10;;;17.40;74.70;;;;;;5116457;28;20023;-30
2022/05/26 07:33:38;;;;;;;7.13;1.90;;;17.40;74.70;;;;;;5116610;28;20517;-36
2022/05/26 07:36:05;;;;;;;7.20;2.03;;;17.50;74.00;;;;;;5116696;28;20050;-34
2022/05/26 07:41:22;;;;;;;7.28;2.00;;;17.70;73.00;;;;;;5116461;28;20088;-32
2022/05/26 07:43:52;;;;;;;6.57;2.17;;;17.80;72.00;;;;;;5116561;28;20505;-30
2022/05/26 07:46:20;;;;;;;8.77;2.10;;;17.80;72.20;;;;;;5116361;28;20062;-33
2022/05/26 07:48:47;;;;;;;3.67;1.50;;;17.80;71.50;;;;;;5116183;28;20027;-33
2022/05/26 07:51:13;;;;;;;6.15;2.00;;;17.90;71.50;;;;;;5116079;28;20523;-31
2022/05/26 07:53:38;;;;;;;6.97;2.22;;;18.00;71.30;;;;;;5114779;28;20024;-35
2022/05/26 07:56:05;;;;;;;7.20;2.10;;;18.10;71.40;;;;;;5116135;28;20031;-32
2022/05/26 07:58:30;;;;;;;5.88;1.83;;;18.10;70.90;;;;;;5116334;28;20020;-34
2022/05/26 08:00:56;;;;;;;8.52;2.30;;;18.10;70.60;;;;;;5116098;28;20376;-31
2022/05/26 08:03:22;;;;;;;5.70;1.90;;;18.10;70.20;;;;;;5115867;28;20459;-33
2022/05/26 08:05:48;;;;;;;6.15;1.85;;;18.20;70.20;;;;;;5116051;27;20115;-30
2022/05/26 08:08:14;;;;;;;5.68;1.67;;;18.30;69.90;;;;;;5116058;28;20486;-31
2022/05/26 08:10:40;;;;;;;7.95;2.10;;;18.30;69.30;;;;;;5115867;28;20466;-31
2022/05/26 08:13:06;;;;;;;4.60;1.77;;;18.30;69.00;;;;;;5115636;28;20031;-30
2022/05/26 08:15:33;;;;;;;3.90;1.35;;;18.30;68.40;;;;;;5115747;28;20095;-36
2022/05/26 08:17:59;;;;;;;4.43;1.52;;;18.40;68.20;;;;;;5114274;28;20028;-31
2022/05/26 08:20:25;;;;;;;5.90;1.45;;;18.50;67.30;;;;;;5114179;28;20076;-34
2022/05/26 08:22:50;;;;;;;4.80;1.30;;;18.60;66.60;;;;;;5115544;28;20024;-30
2022/05/26 08:25:16;;;;;;;6.35;1.70;;;18.60;66.30;;;;;;5115635;28;20058;-34
2022/05/26 08:27:42;;;;;;;4.90;1.88;;;18.50;66.40;;;;;;5116117;28;20020;-34
2022/05/26 08:30:08;;;;;;;7.18;1.60;;;18.50;66.50;;;;;;5115643;28;20034;-33
2022/05/26 08:32:34;;;;;;;4.05;1.40;;;18.50;66.70;;;;;;5114805;28;20103;-33
2022/05/26 08:35:04;;;;;;;3.88;1.92;;;18.60;67.00;;;;;;5115049;28;20455;-32
2022/05/26 08:37:30;;;;;;;5.20;1.52;;;18.70;66.40;;;;;;5115220;28;20107;-32
2022/05/26 08:39:55;;;;;;;2.65;1.13;;;18.80;66.10;;;;;;5115107;28;20051;-35
2022/05/26 08:42:29;;;;;;;3.75;1.27;;;18.90;65.90;;;;;;5113871;28;20019;-31
2022/05/26 08:44:59;;;;;;;3.22;1.50;;;19.00;65.10;;;;;;5115128;28;20024;-32
2022/05/26 08:47:35;;;;;;;2.53;1.20;;;19.00;64.30;;;;;;5114606;28;20115;-31
2022/05/26 08:50:14;;;;;;;6.10;1.65;;;19.00;63.90;;;;;;5115826;27;20367;-33
2022/05/26 08:52:55;;;;;;;3.55;1.45;;;19.10;64.40;;;;;;5114971;28;20448;-37
2022/05/26 08:55:30;;;;;;;3.92;1.42;;;19.10;64.30;;;;;;5114834;28;20023;-31
2022/05/26 08:58:08;;;;;;;3.92;1.48;;;19.20;63.90;;;;;;5114550;28;20050;-31
2022/05/26 09:00:37;;;;;;;3.58;1.50;;;19.20;63.50;;;;;;5114798;28;20075;-33
2022/05/26 09:03:20;;;;;;;6.63;2.10;;;19.10;63.20;;;;;;5114921;28;20019;-32
2022/05/26 09:05:49;;;;;;;3.90;1.48;;;19.10;63.20;;;;;;5114751;28;20020;-30
2022/05/26 09:13:51;;;;;;;2.17;1.27;;;18.80;65.10;;;;;;5114779;28;20034;-34
2022/05/26 09:16:17;;;;;;;3.40;1.40;;;18.80;65.30;;;;;;5114626;28;20031;-33
2022/05/26 09:18:44;;;;;;;4.13;1.67;;;18.90;65.30;;;;;;5114453;28;20123;-32
2022/05/26 09:21:17;;;;;;;3.75;1.30;;;19.00;64.60;;;;;;5114569;28;20369;-31
2022/05/26 09:23:46;;;;;;;2.85;0.90;;;19.00;64.40;;;;;;5114237;28;20027;-32
2022/05/26 09:26:17;;;;;;;3.20;1.13;;;19.10;64.60;;;;;;5114541;28;20026;-27
2022/05/26 09:28:52;;;;;;;6.00;1.30;;;19.10;64.30;;;;;;5114133;28;20351;-32
2022/05/26 09:31:31;;;;;;;5.43;1.75;;;19.10;64.10;;;;;;5112766;28;20069;-49
2022/05/26 09:34:04;;;;;;;3.88;1.40;;;19.10;64.20;;;;;;5114629;28;20110;-47
2022/05/26 09:36:36;;;;;;;6.57;1.40;;;19.30;64.30;;;;;;5114457;28;20049;-47
2022/05/26 09:39:03;;;;;;;6.60;1.90;;;19.50;64.30;;;;;;5114157;28;20039;-46
2022/05/26 09:41:35;;;;;;;4.30;1.70;;;19.60;63.60;;;;;;5114129;28;20027;-43
2022/05/26 09:44:01;;;;;;;6.90;1.85;;;19.50;63.50;;;;;;5113733;27;20081;-43
2022/05/26 09:46:28;;;;;;;4.35;1.58;;;19.50;63.80;;;;;;5112599;28;20019;-44
2022/05/26 09:49:08;;;;;;;3.38;1.30;;;19.50;63.70;;;;;;5113909;28;20020;-41
2022/05/26 09:51:45;;;;;;;3.40;1.42;;;19.60;63.70;;;;;;5113944;28;20051;-47
2022/05/26 09:54:32;;;;;;;5.90;1.45;;;19.70;63.50;;;;;;5114038;28;20543;-47
2022/05/26 09:57:12;;;;;;;4.22;1.38;;;19.80;63.20;;;;;;5113666;28;20465;-47
2022/05/26 09:59:42;;;;;;;2.15;1.13;;;19.80;62.60;;;;;;5111839;28;20487;-47
2022/05/26 10:02:35;;;;;;;2.03;1.10;;;19.80;62.40;;;;;;5113865;28;20117;-47
2022/05/26 10:05:02;;;;;;;5.68;1.40;;;19.80;62.50;;;;;;5113659;28;20049;-31
2022/05/26 10:07:49;;;;;;;1.80;0.90;;;19.70;62.40;;;;;;5113875;28;20421;-28
2022/05/26 10:10:38;;;;;;;2.08;0.77;;;19.80;62.30;;;;;;5114320;28;20024;-32
2022/05/26 10:13:24;;;;;;;1.73;0.98;;;19.80;61.90;;;;;;5113430;28;20020;-29
2022/05/26 10:15:52;;;;;;;2.58;0.90;;;19.80;61.20;;;;;;5113392;28;20410;-28
2022/05/26 10:18:38;;;;;;;4.18;1.10;;;19.80;61.20;;;;;;5113433;28;20019;-29
2022/05/26 10:21:34;;;;;;;2.20;0.90;;;19.90;60.30;;;;;;5113577;28;20053;-29
2022/05/26 10:24:24;;;;;;;2.97;0.90;;;19.90;60.10;;;;;;5113295;28;20023;-31
2022/05/26 10:27:01;;;;;;;2.08;0.80;;;19.90;60.00;;;;;;5113313;28;20015;-31
2022/05/26 10:29:31;;;;;;;3.22;0.90;;;20.10;60.00;;;;;;5113367;28;20047;-28
2022/05/26 10:32:17;;;;;;;3.38;1.13;;;20.20;60.00;;;;;;5113481;28;20024;-28
2022/05/26 10:35:12;;;;;;;1.98;0.95;;;20.30;59.90;;;;;;5113211;28;20058;-32
2022/05/26 10:38:07;;;;;;;2.67;0.90;;;20.20;59.70;;;;;;5113265;28;20483;-29
2022/05/26 10:41:16;;;;;;;3.10;1.20;;;20.20;59.60;;;;;;5113386;28;20035;-31
2022/05/26 10:43:47;;;;;;;4.32;1.30;;;20.10;59.70;;;;;;5113168;28;20016;-46
2022/05/26 10:46:16;;;;;;;2.13;0.90;;;19.90;60.30;;;;;;5113442;28;20024;-46
2022/05/26 10:49:03;;;;;;;2.85;1.20;;;20.00;60.50;;;;;;5113233;28;20028;-45
2022/05/26 10:51:37;;;;;;;3.22;1.10;;;20.10;60.00;;;;;;5112954;28;20020;-46
2022/05/26 10:54:28;;;;;;;5.25;1.13;;;20.20;60.20;;;;;;5113145;28;20160;-45
2022/05/26 10:57:02;;;;;;;2.35;0.90;;;20.30;60.40;;;;;;5115017;28;20039;-46
2022/05/26 10:59:32;;;;;;;3.15;1.23;;;20.30;59.60;;;;;;5117600;27;20031;-46
2022/05/26 11:02:16;;;;;;;3.60;1.20;;;20.40;59.80;;;;;;5116937;28;20027;-46
2022/05/26 11:04:41;;;;;;;2.95;1.33;;;20.60;59.60;;;;;;5117244;28;20365;-46
2022/05/26 11:07:16;;;;;;;2.90;1.00;;;20.70;59.20;;;;;;5116920;28;20072;-48
2022/05/26 11:09:55;;;;;;;3.53;1.20;;;20.70;58.90;;;;;;5117216;28;20375;-46
2022/05/26 11:12:33;;;;;;;2.85;1.10;;;20.70;58.40;;;;;;5116847;28;20024;-46
2022/05/26 11:18:33;;;;;;;4.55;1.20;;;20.70;58.40;;;;;;5115882;28;20449;-46
2022/05/26 11:20:59;;;;;;;5.22;1.20;;;20.60;58.50;;;;;;5116674;28;20030;-46
2022/05/26 11:23:27;;;;;;;4.53;1.38;;;20.60;58.50;;;;;;5115125;28;20084;-46
2022/05/26 11:26:02;;;;;;;5.22;1.27;;;20.60;58.30;;;;;;5115298;28;20020;-45
2022/05/26 11:28:33;;;;;;;4.25;1.40;;;20.60;58.10;;;;;;5116650;28;20059;-45
2022/05/26 11:36:59;;;;;;;4.80;1.30;;;20.60;57.70;;;;;;5116804;28;20039;-47
2022/05/26 11:39:33;;;;;;;3.13;1.27;;;20.60;55.90;;;;;;5116674;28;20026;-48
2022/05/26 11:42:03;;;;;;;3.85;1.30;;;20.60;56.60;;;;;;5116730;28;20031;-46
2022/05/26 11:44:47;;;;;;;3.35;1.10;;;20.70;56.70;;;;;;5116346;28;20016;-46
2022/05/26 11:47:12;;;;;;;3.15;1.05;;;20.80;57.00;;;;;;5116737;28;20030;-46
2022/05/26 11:49:44;;;;;;;3.03;1.20;;;20.90;56.20;;;;;;5116667;28;20103;-47
2022/05/26 11:52:22;;;;;;;3.67;1.50;;;21.00;54.80;;;;;;5116547;28;20490;-47
2022/05/26 11:54:55;;;;;;;3.80;1.10;;;21.00;54.50;;;;;;5114965;28;20382;-49
2022/05/26 11:57:33;;;;;;;;;;;21.00;54.50;;;;;;5116546;28;20414;-46
2022/05/26 12:00:30;;;;;;;3.58;0.90;;;21.10;54.30;;;;;;5116657;28;19979;-45
2022/05/26 12:03:47;;;;;;;2.78;1.00;;;21.10;54.60;;;;;;5093803;28;20036;-46
2022/05/26 12:06:14;;;;;;;2.80;1.17;;;21.20;55.00;;;;;;5073608;28;20024;-47
2022/05/26 12:08:55;;;;;;;2.38;1.27;;;21.20;54.20;;;;;;5073616;28;20066;-46
2022/05/26 12:11:58;;;;;;;4.32;1.13;;;21.30;53.40;;;;;;5101651;28;20031;-48
2022/05/26 12:14:40;;;;;;;5.75;1.50;;;21.30;53.30;;;;;;5116169;28;20092;-47
2022/05/26 12:17:33;;;;;;;3.97;1.30;;;21.40;53.20;;;;;;5115847;28;20032;-45
2022/05/26 12:20:05;;;;;;;2.35;1.02;;;21.30;53.60;;;;;;5114305;28;20395;-45
2022/05/26 12:22:36;;;;;;;7.00;1.55;;;21.30;53.30;;;;;;5115771;28;20467;-46
2022/05/26 12:25:07;;;;;;;3.17;1.10;;;21.40;53.00;;;;;;5115348;28;20027;-45
2022/05/26 12:27:48;;;;;;;3.13;1.05;;;21.60;53.60;;;;;;5115695;28;20127;-46
2022/05/26 12:30:29;;;;;;;3.20;1.00;;;21.60;53.40;;;;;;5115690;28;20054;-46
2022/05/26 12:32:56;;;;;;;4.00;1.17;;;21.60;53.20;;;;;;5116042;28;20464;-47
2022/05/26 12:36:04;;;;;;;4.50;0.90;;;21.70;52.80;;;;;;5115429;28;20471;-45
2022/05/26 12:38:58;;;;;;;4.35;1.15;;;21.80;52.00;;;;;;5114106;28;20020;-45
2022/05/26 12:42:01;;;;;;;4.43;1.08;;;22.00;52.20;;;;;;5113969;28;20032;-45
2022/05/26 12:44:27;;;;;;;3.87;1.10;;;22.10;51.80;;;;;;5115489;28;20023;-45
2022/05/26 12:47:05;;;;;;;2.60;0.90;;;22.20;51.80;;;;;;5115208;28;20035;-46
2022/05/26 12:50:00;;;;;;;2.30;1.13;;;22.20;51.50;;;;;;5115342;28;20062;-46
2022/05/26 12:52:35;;;;;;;3.30;0.85;;;22.10;51.70;;;;;;5115462;28;20020;-46
2022/05/26 12:55:21;;;;;;;3.88;1.20;;;22.10;52.10;;;;;;5115266;28;20104;-46
2022/05/26 12:58:04;;;;;;;2.75;0.90;;;22.10;51.30;;;;;;5114570;28;20048;-46
2022/05/26 13:00:37;;;;;;;4.30;1.20;;;22.10;51.00;;;;;;5115043;28;20031;-46
2022/05/26 13:03:39;;;;;;;2.35;1.00;;;22.20;50.80;;;;;;5114821;28;20092;-47
2022/05/26 13:06:11;;;;;;;2.55;1.00;;;22.20;51.30;;;;;;5101879;27;20054;-46
2022/05/26 13:08:40;;;;;;;4.60;1.40;;;22.20;51.40;;;;;;5114931;28;20125;-47
2022/05/26 13:11:13;;;;;;;2.50;1.20;;;22.30;51.60;;;;;;5114735;28;20066;-47
2022/05/26 13:13:48;;;;;;;3.58;1.25;;;22.20;51.20;;;;;;5114524;28;20136;-46
2022/05/26 13:16:21;;;;;;;5.35;0.93;;;22.10;51.60;;;;;;5114822;28;20019;-46
2022/05/26 13:18:47;;;;;;;2.55;1.30;;;22.10;52.30;;;;;;5113964;28;20039;-41
2022/05/26 13:21:22;;;;;;;3.80;1.15;;;22.10;52.40;;;;;;5113109;28;20383;-46
2022/05/26 13:23:51;;;;;;;3.17;1.13;;;22.10;52.00;;;;;;5114631;28;20062;-32
2022/05/26 13:26:18;;;;;;;5.68;1.60;;;22.20;52.10;;;;;;5114723;28;20026;-31
2022/05/26 13:28:49;;;;;;;4.22;1.63;;;22.10;52.30;;;;;;5114335;28;20019;-29
2022/05/26 13:34:03;;;;;;;3.95;1.50;;;22.20;53.00;;;;;;5114350;28;20440;-30
2022/05/26 13:36:46;;;;;;;5.25;1.80;;;22.20;53.00;;;;;;5114211;28;20012;-32
2022/05/26 13:39:20;;;;;;;2.78;1.33;;;22.10;53.20;;;;;;5114074;28;20077;-32
2022/05/26 13:41:50;;;;;;;4.50;1.73;;;22.20;53.50;;;;;;5114031;28;20072;-42
2022/05/26 13:44:23;;;;;;;5.13;1.75;;;22.20;53.50;;;;;;5113971;28;20024;-43
2022/05/26 13:46:50;;;;;;;5.67;2.27;;;22.20;53.60;;;;;;5113767;28;20091;-38
2022/05/26 13:49:32;;;;;;;5.13;1.95;;;22.20;53.70;;;;;;5113888;28;20740;-45
2022/05/26 13:52:16;;;;;;;7.18;2.50;;;22.20;53.70;;;;;;5114008;28;20103;-47